Time,TemperatureF,DewpointF,PressureIn,WindDirection,WindDirectionDegrees,WindSpeedMPH,WindSpeedGustMPH,Humidity,HourlyPrecipIn,Conditions,Clouds,dailyrainin,SoftwareType,DateUTC
2013-02-26 00:12:00,8.7,5.0,30.07,WSW,248,1.0,-999.0,84,-99.99,,,0.00,weatherlink.com 1.10,2013-02-26 07:12:00,
2013-02-26 00:27:00,9.6,6.0,30.07,West,260,3.0,-999.0,84,-99.99,,,0.00,weatherlink.com 1.10,2013-02-26 07:27:00,
2013-02-26 00:42:00,10.8,7.0,30.07,WSW,250,1.0,-999.0,84,-99.99,,,0.00,weatherlink.com 1.10,2013-02-26 07:42:00,
2013-02-26 00:58:00,11.3,7.0,30.07,WSW,250,0.0,-999.0,83,-99.99,,,0.00,weatherlink.com 1.10,2013-02-26 07:58:00,
2013-02-26 01:13:00,11.8,8.0,30.05,WSW,250,0.0,-999.0,83,-99.99,,,0.00,weatherlink.com 1.10,2013-02-26 08:13:00,
2013-02-26 01:28:00,11.5,7.0,30.05,WSW,250,3.0,-999.0,82,-99.99,,,0.00,weatherlink.com 1.10,2013-02-26 08:28:00,
2013-02-26 01:43:00,11.5,7.0,30.05,WSW,250,3.0,-999.0,82,-99.99,,,0.00,weatherlink.com 1.10,2013-02-26 08:43:00,
2013-02-26 01:58:00,10.9,6.0,30.05,WSW,254,2.0,-999.0,81,-99.99,,,0.00,weatherlink.com 1.10,2013-02-26 08:58:00,
2013-02-26 02:13:00,10.8,6.0,30.04,WSW,242,3.0,-999.0,82,-99.99,,,0.00,weatherlink.com 1.10,2013-02-26 09:13:00,
2013-02-26 02:28:00,11.8,7.0,30.03,WSW,242,0.0,-999.0,81,-99.99,,,0.00,weatherlink.com 1.10,2013-02-26 09:28:00,
2013-02-26 02:43:00,11.8,7.0,30.02,WSW,242,2.0,-999.0,81,-99.99,,,0.00,weatherlink.com 1.10,2013-02-26 09:43:00,
2013-02-26 02:58:00,12.3,7.0,30.02,SE,134,4.0,-999.0,80,-99.99,,,0.00,weatherlink.com 1.10,2013-02-26 09:58:00,
2013-02-26 03:13:00,13.1,7.0,30.01,SE,144,3.0,-999.0,76,-99.99,,,0.00,weatherlink.com 1.10,2013-02-26 10:13:00,
2013-02-26 03:29:00,12.3,6.0,30.01,WSW,250,3.0,-999.0,75,-99.99,,,0.00,weatherlink.com 1.10,2013-02-26 10:29:00,
2013-02-26 03:44:00,11.0,5.0,30.00,WNW,290,1.0,-999.0,78,-99.99,,,0.00,weatherlink.com 1.10,2013-02-26 10:44:00,
2013-02-26 03:59:00,9.6,4.0,30.00,WSW,252,5.0,-999.0,79,-99.99,,,0.00,weatherlink.com 1.10,2013-02-26 10:59:00,
2013-02-26 04:14:00,7.9,3.0,30.00,West,277,2.0,-999.0,80,-99.99,,,0.00,weatherlink.com 1.10,2013-02-26 11:14:00,
2013-02-26 04:29:00,9.9,4.0,29.99,West,265,4.0,-999.0,78,-99.99,,,0.00,weatherlink.com 1.10,2013-02-26 11:29:00,
2013-02-26 04:44:00,12.0,6.0,29.99,WNW,291,3.0,-999.0,75,-99.99,,,0.00,weatherlink.com 1.10,2013-02-26 11:44:00,
2013-02-26 04:59:00,13.0,7.0,29.98,WSW,252,5.0,-999.0,75,-99.99,,,0.00,weatherlink.com 1.10,2013-02-26 11:59:00,
2013-02-26 05:14:00,13.7,6.0,29.98,WSW,240,6.0,-999.0,70,-99.99,,,0.00,weatherlink.com 1.10,2013-02-26 12:14:00,
2013-02-26 05:29:00,13.1,5.0,29.99,WSW,256,5.0,-999.0,71,-99.99,,,0.00,weatherlink.com 1.10,2013-02-26 12:29:00,
2013-02-26 05:44:00,13.0,5.0,30.00,West,260,4.0,-999.0,69,-99.99,,,0.00,weatherlink.com 1.10,2013-02-26 12:44:00,
2013-02-26 05:59:00,12.4,5.0,29.99,West,272,2.0,-999.0,71,-99.99,,,0.00,weatherlink.com 1.10,2013-02-26 12:59:00,
2013-02-26 06:14:00,12.4,5.0,29.99,WSW,247,1.0,-999.0,71,-99.99,,,0.00,weatherlink.com 1.10,2013-02-26 13:14:00,
2013-02-26 06:30:00,11.0,3.0,29.98,WSW,253,6.0,-999.0,69,-99.99,,,0.00,weatherlink.com 1.10,2013-02-26 13:30:00,
2013-02-26 06:45:00,19.0,8.0,29.99,West,264,7.0,-999.0,62,-99.99,,,0.00,weatherlink.com 1.10,2013-02-26 13:45:00,
2013-02-26 07:00:00,21.6,7.0,29.98,West,265,5.0,-999.0,53,-99.99,,,0.00,weatherlink.com 1.10,2013-02-26 14:00:00,
2013-02-26 07:15:00,18.2,5.0,29.97,SSW,197,3.0,-999.0,57,-99.99,,,0.00,weatherlink.com 1.10,2013-02-26 14:15:00,
2013-02-26 07:30:00,17.0,5.0,29.97,SW,215,3.0,-999.0,60,-99.99,,,0.00,weatherlink.com 1.10,2013-02-26 14:30:00,
2013-02-26 07:45:00,17.7,6.0,29.98,SSW,200,1.0,-999.0,61,-99.99,,,0.00,weatherlink.com 1.10,2013-02-26 14:45:00,
2013-02-26 08:00:00,20.7,8.0,29.97,WNW,283,3.0,-999.0,58,-99.99,,,0.00,weatherlink.com 1.10,2013-02-26 15:00:00,
2013-02-26 08:15:00,23.8,8.0,29.97,WSW,248,2.0,-999.0,52,-99.99,,,0.00,weatherlink.com 1.10,2013-02-26 15:15:00,
2013-02-26 08:30:00,18.1,7.0,29.97,South,182,4.0,-999.0,63,-99.99,,,0.00,weatherlink.com 1.10,2013-02-26 15:30:00,
2013-02-26 08:46:00,19.7,7.0,29.97,SE,139,3.0,-999.0,59,-99.99,,,0.00,weatherlink.com 1.10,2013-02-26 15:46:00,
2013-02-26 09:01:00,21.4,8.0,29.96,SE,124,3.0,-999.0,57,-99.99,,,0.00,weatherlink.com 1.10,2013-02-26 16:01:00,
2013-02-26 09:16:00,22.8,9.0,29.96,ESE,123,1.0,-999.0,55,-99.99,,,0.00,weatherlink.com 1.10,2013-02-26 16:16:00,
2013-02-26 09:31:00,24.0,10.0,29.96,ESE,110,2.0,-999.0,55,-99.99,,,0.00,weatherlink.com 1.10,2013-02-26 16:31:00,
2013-02-26 09:46:00,25.4,10.0,29.95,SE,140,4.0,-999.0,53,-99.99,,,0.00,weatherlink.com 1.10,2013-02-26 16:46:00,
2013-02-26 10:01:00,27.1,16.0,29.95,NE,35,10.0,-999.0,62,-99.99,,,0.00,weatherlink.com 1.10,2013-02-26 17:01:00,
2013-02-26 10:16:00,28.7,17.0,29.95,NE,34,8.0,-999.0,62,-99.99,,,0.00,weatherlink.com 1.10,2013-02-26 17:16:00,
2013-02-26 10:31:00,25.8,18.0,29.95,East,80,9.0,-999.0,71,-99.99,,,0.00,weatherlink.com 1.10,2013-02-26 17:31:00,
2013-02-26 10:46:00,26.0,19.0,29.95,NNE,27,5.0,-999.0,75,-99.99,,,0.00,weatherlink.com 1.10,2013-02-26 17:46:00,
2013-02-26 11:02:00,26.5,18.0,29.95,NE,53,7.0,-999.0,71,-99.99,,,0.00,weatherlink.com 1.10,2013-02-26 18:02:00,
2013-02-26 11:17:00,26.5,19.0,29.95,NNE,19,6.0,-999.0,73,-99.99,,,0.00,weatherlink.com 1.10,2013-02-26 18:17:00,
2013-02-26 11:32:00,27.2,19.0,29.95,NNE,31,7.0,-999.0,72,-99.99,,,0.00,weatherlink.com 1.10,2013-02-26 18:32:00,
2013-02-26 11:47:00,26.0,20.0,29.95,NNE,13,6.0,-999.0,78,-99.99,,,0.00,weatherlink.com 1.10,2013-02-26 18:47:00,
2013-02-26 12:02:00,25.1,20.0,29.95,NNE,16,10.0,-999.0,80,-99.99,,,0.01,weatherlink.com 1.10,2013-02-26 19:02:00,
2013-02-26 12:17:00,23.0,17.0,29.95,East,84,5.0,-999.0,79,-99.99,,,0.02,weatherlink.com 1.10,2013-02-26 19:17:00,
2013-02-26 12:32:00,22.7,17.0,29.95,ESE,111,9.0,-999.0,80,-99.99,,,0.02,weatherlink.com 1.10,2013-02-26 19:32:00,
2013-02-26 12:47:00,23.5,18.0,29.95,NE,55,3.0,-999.0,79,-99.99,,,0.02,weatherlink.com 1.10,2013-02-26 19:47:00,
2013-02-26 13:02:00,24.8,20.0,29.95,North,355,7.0,-999.0,82,-99.99,,,0.02,weatherlink.com 1.10,2013-02-26 20:02:00,
2013-02-26 13:17:00,25.6,20.0,29.94,NE,34,11.0,-999.0,80,-99.99,,,0.02,weatherlink.com 1.10,2013-02-26 20:17:00,
2013-02-26 13:32:00,26.7,20.0,29.95,NNE,24,7.0,-999.0,77,-99.99,,,0.02,weatherlink.com 1.10,2013-02-26 20:32:00,
2013-02-26 13:47:00,27.5,20.0,29.95,North,5,13.0,-999.0,72,-99.99,,,0.02,weatherlink.com 1.10,2013-02-26 20:47:00,
2013-02-26 14:03:00,25.6,19.0,29.96,NNE,19,5.0,-999.0,75,-99.99,,,0.02,weatherlink.com 1.10,2013-02-26 21:03:00,
2013-02-26 14:18:00,24.4,18.0,29.97,NNE,20,9.0,-999.0,78,-99.99,,,0.02,weatherlink.com 1.10,2013-02-26 21:18:00,
2013-02-26 14:33:00,24.0,18.0,29.97,NE,34,11.0,-999.0,79,-99.99,,,0.02,weatherlink.com 1.10,2013-02-26 21:33:00,
2013-02-26 14:48:00,23.0,18.0,29.99,NE,44,6.0,-999.0,81,-99.99,,,0.02,weatherlink.com 1.10,2013-02-26 21:48:00,
2013-02-26 15:03:00,22.4,18.0,29.99,North,355,6.0,-999.0,83,-99.99,,,0.03,weatherlink.com 1.10,2013-02-26 22:03:00,
2013-02-26 15:18:00,22.7,19.0,30.00,NNE,15,9.0,-999.0,84,-99.99,,,0.04,weatherlink.com 1.10,2013-02-26 22:18:00,
2013-02-26 15:33:00,23.3,18.0,30.02,NNE,20,9.0,-999.0,81,-99.99,,,0.05,weatherlink.com 1.10,2013-02-26 22:33:00,
2013-02-26 15:48:00,23.3,18.0,30.03,NNE,19,9.0,-999.0,81,-99.99,,,0.05,weatherlink.com 1.10,2013-02-26 22:48:00,
2013-02-26 16:03:00,23.1,18.0,30.04,NNE,30,6.0,-999.0,81,-99.99,,,0.05,weatherlink.com 1.10,2013-02-26 23:03:00,
2013-02-26 16:18:00,22.9,18.0,30.05,North,355,4.0,-999.0,82,-99.99,,,0.05,weatherlink.com 1.10,2013-02-26 23:18:00,
2013-02-26 16:33:00,23.0,19.0,30.07,NNE,30,8.0,-999.0,83,-99.99,,,0.05,weatherlink.com 1.10,2013-02-26 23:33:00,
2013-02-26 16:48:00,22.7,18.0,30.07,North,5,4.0,-999.0,83,-99.99,,,0.05,weatherlink.com 1.10,2013-02-26 23:48:00,
2013-02-26 17:03:00,22.7,18.0,30.09,North,355,4.0,-999.0,83,-99.99,,,0.05,weatherlink.com 1.10,2013-02-27 00:03:00,
2013-02-26 17:19:00,22.5,18.0,30.11,NNE,20,6.0,-999.0,84,-99.99,,,0.05,weatherlink.com 1.10,2013-02-27 00:19:00,
2013-02-26 17:34:00,22.1,18.0,30.12,NNE,14,10.0,-999.0,84,-99.99,,,0.06,weatherlink.com 1.10,2013-02-27 00:34:00,
2013-02-26 17:49:00,21.5,17.0,30.14,NNE,21,6.0,-999.0,84,-99.99,,,0.06,weatherlink.com 1.10,2013-02-27 00:49:00,
2013-02-26 18:04:00,21.2,17.0,30.15,NNE,24,2.0,-999.0,85,-99.99,,,0.07,weatherlink.com 1.10,2013-02-27 01:04:00,
2013-02-26 18:19:00,21.3,17.0,30.17,ENE,57,3.0,-999.0,84,-99.99,,,0.07,weatherlink.com 1.10,2013-02-27 01:19:00,
2013-02-26 18:34:00,21.1,17.0,30.18,NNE,22,9.0,-999.0,84,-99.99,,,0.07,weatherlink.com 1.10,2013-02-27 01:34:00,
2013-02-26 18:49:00,20.7,16.0,30.19,North,360,5.0,-999.0,81,-99.99,,,0.07,weatherlink.com 1.10,2013-02-27 01:49:00,
2013-02-26 19:04:00,20.6,14.0,30.20,NNE,16,7.0,-999.0,77,-99.99,,,0.07,weatherlink.com 1.10,2013-02-27 02:04:00,
2013-02-26 19:34:00,19.9,13.0,30.22,NNW,348,4.0,-999.0,74,-99.99,,,0.07,weatherlink.com 1.10,2013-02-27 02:34:00,
2013-02-26 19:50:00,20.0,13.0,30.23,NNW,334,2.0,-999.0,74,-99.99,,,0.07,weatherlink.com 1.10,2013-02-27 02:50:00,
2013-02-26 20:05:00,19.3,13.0,30.24,NW,320,1.0,-999.0,75,-99.99,,,0.07,weatherlink.com 1.10,2013-02-27 03:05:00,
2013-02-26 20:20:00,17.6,12.0,30.25,WSW,256,3.0,-999.0,77,-99.99,,,0.07,weatherlink.com 1.10,2013-02-27 03:20:00,
2013-02-26 20:35:00,15.8,11.0,30.26,WSW,255,1.0,-999.0,80,-99.99,,,0.07,weatherlink.com 1.10,2013-02-27 03:35:00,
2013-02-26 20:50:00,16.6,12.0,30.27,NNW,342,2.0,-999.0,81,-99.99,,,0.07,weatherlink.com 1.10,2013-02-27 03:50:00,
2013-02-26 21:05:00,16.5,11.0,30.27,NNW,338,1.0,-999.0,80,-99.99,,,0.07,weatherlink.com 1.10,2013-02-27 04:05:00,
2013-02-26 21:20:00,15.7,11.0,30.28,WSW,247,1.0,-999.0,80,-99.99,,,0.07,weatherlink.com 1.10,2013-02-27 04:20:00,
2013-02-26 21:35:00,14.5,10.0,30.29,WSW,251,3.0,-999.0,81,-99.99,,,0.07,weatherlink.com 1.10,2013-02-27 04:35:00,
2013-02-26 21:50:00,13.0,8.0,30.30,WSW,248,3.0,-999.0,81,-99.99,,,0.07,weatherlink.com 1.10,2013-02-27 04:50:00,
2013-02-26 22:05:00,11.2,6.0,30.30,WSW,244,4.0,-999.0,81,-99.99,,,0.07,weatherlink.com 1.10,2013-02-27 05:05:00,
2013-02-26 22:21:00,9.9,6.0,30.31,WSW,252,2.0,-999.0,83,-99.99,,,0.07,weatherlink.com 1.10,2013-02-27 05:21:00,
2013-02-26 22:36:00,9.2,5.0,30.32,WSW,244,5.0,-999.0,84,-99.99,,,0.07,weatherlink.com 1.10,2013-02-27 05:36:00,
2013-02-26 22:51:00,6.1,2.0,30.33,WNW,288,1.0,-999.0,81,-99.99,,,0.07,weatherlink.com 1.10,2013-02-27 05:51:00,
2013-02-26 23:06:00,7.2,3.0,30.33,North,5,1.0,-999.0,83,-99.99,,,0.07,weatherlink.com 1.10,2013-02-27 06:06:00,
2013-02-26 23:21:00,6.2,2.0,30.33,WSW,252,5.0,-999.0,82,-99.99,,,0.07,weatherlink.com 1.10,2013-02-27 06:21:00,
2013-02-26 23:36:00,5.1,1.0,30.34,WSW,239,3.0,-999.0,82,-99.99,,,0.07,weatherlink.com 1.10,2013-02-27 06:36:00,
2013-02-26 23:51:00,3.7,0.0,30.34,WSW,242,2.0,-999.0,83,-99.99,,,0.07,weatherlink.com 1.10,2013-02-27 06:51:00,